Time;durP1;ratioP1;P1;durP2;ratioP2;P2;SDS_P1;SDS_P2;PMS_P1;PMS_P2;Temp;Humidity;BMP_temperature;BMP_pressure;BME280_temperature;BME280_humidity;BME280_pressure;Samples;Min_cycle;Max_cycle;Signal;HPM_P1;HPM_P2
2023/08/18 00:00:46;;;;;;;12.13;10.47;;;;;21.30;97055.00;;;;5050288;28;20211;-86
2023/08/18 00:03:37;;;;;;;11.13;9.97;;;;;21.10;97047.00;;;;5044186;28;20231;-86
2023/08/18 00:06:26;;;;;;;12.07;10.90;;;;;20.80;97044.00;;;;5042592;28;20278;-86
2023/08/18 00:09:15;;;;;;;14.07;10.57;;;;;20.80;97044.00;;;;5044510;28;20208;-86
2023/08/18 00:12:05;;;;;;;10.97;9.70;;;;;20.70;97049.00;;;;5045922;28;20270;-86
2023/08/18 00:14:55;;;;;;;11.67;10.43;;;;;20.50;97052.00;;;;5044749;28;20200;-86
2023/08/18 00:17:45;;;;;;;10.47;9.47;;;;;20.10;97055.00;;;;5044919;28;20224;-86
2023/08/18 00:20:35;;;;;;;11.97;10.17;;;;;20.10;97055.00;;;;5053662;28;20215;-86
2023/08/18 00:23:25;;;;;;;11.87;10.67;;;;;20.30;97054.00;;;;5050707;28;20220;-86
2023/08/18 00:26:14;;;;;;;12.50;10.60;;;;;20.30;97051.00;;;;5048967;28;20228;-86
2023/08/18 00:29:03;;;;;;;13.13;10.87;;;;;20.40;97061.00;;;;5047146;28;20194;-86
2023/08/18 00:31:52;;;;;;;15.13;10.67;;;;;20.50;97063.00;;;;5046256;28;20732;-86
2023/08/18 00:34:41;;;;;;;12.67;10.40;;;;;20.50;97052.00;;;;5045124;28;20204;-86
2023/08/18 00:37:31;;;;;;;11.70;10.57;;;;;20.70;97049.00;;;;5049391;28;20224;-86
2023/08/18 00:40:24;;;;;;;11.57;9.77;;;;;20.90;97047.00;;;;5051781;28;20200;-86
2023/08/18 00:43:13;;;;;;;14.27;11.13;;;;;21.00;97047.00;;;;5047676;28;20216;-86
2023/08/18 00:46:02;;;;;;;12.20;10.30;;;;;21.00;97046.00;;;;5048781;28;20239;-86
2023/08/18 00:48:51;;;;;;;11.10;10.03;;;;;21.00;97048.00;;;;5049222;28;20553;-86
2023/08/18 00:51:41;;;;;;;11.53;10.37;;;;;20.90;97041.00;;;;5048422;28;20220;-86
2023/08/18 00:54:32;;;;;;;11.77;10.30;;;;;20.90;97040.00;;;;5050843;28;20207;-86
2023/08/18 00:57:21;;;;;;;9.93;9.00;;;;;20.70;97046.00;;;;5046792;28;20217;-86
2023/08/18 01:00:11;;;;;;;11.47;9.63;;;;;20.40;97054.00;;;;5048351;28;20658;-86
2023/08/18 01:03:00;;;;;;;9.67;8.70;;;;;20.20;97041.00;;;;5049272;28;20216;-86
2023/08/18 01:05:49;;;;;;;11.70;9.23;;;;;20.20;97042.00;;;;5045993;28;20413;-87
2023/08/18 01:08:38;;;;;;;11.53;10.37;;;;;20.20;97044.00;;;;5045445;28;20205;-87
2023/08/18 01:11:35;;;;;;;11.93;10.67;;;;;20.30;97044.00;;;;5048651;28;20836;-86
2023/08/18 01:14:33;;;;;;;13.43;9.53;;;;;20.30;97043.00;;;;5050245;28;20200;-86
2023/08/18 01:17:25;;;;;;;10.87;9.77;;;;;20.10;97047.00;;;;5050116;28;20681;-86
2023/08/18 01:20:15;;;;;;;13.10;10.93;;;;;19.80;97051.00;;;;5048196;28;20197;-87
2023/08/18 01:23:06;;;;;;;11.60;9.70;;;;;19.90;97042.00;;;;5050941;28;20202;-86
2023/08/18 01:25:55;;;;;;;12.17;10.73;;;;;19.70;97042.00;;;;5049322;28;20246;-86
2023/08/18 01:28:45;;;;;;;11.07;9.80;;;;;19.60;97026.00;;;;5048749;28;20219;-86
2023/08/18 01:31:34;;;;;;;12.17;10.20;;;;;19.80;97038.00;;;;5044468;28;20197;-86
2023/08/18 01:34:25;;;;;;;12.17;10.77;;;;;19.70;97030.00;;;;5047367;28;20231;-86
2023/08/18 01:37:15;;;;;;;12.97;10.87;;;;;19.80;97035.00;;;;5049308;28;20213;-86
2023/08/18 01:40:07;;;;;;;11.43;10.23;;;;;20.10;97036.00;;;;5053759;28;20205;-85
2023/08/18 01:42:58;;;;;;;18.17;11.60;;;;;20.10;97038.00;;;;5048033;28;20674;-85
2023/08/18 01:45:47;;;;;;;12.23;10.97;;;;;20.10;97030.00;;;;5046259;28;20595;-86
2023/08/18 01:48:36;;;;;;;12.77;11.27;;;;;20.00;97031.00;;;;5044453;28;20205;-87
2023/08/18 01:51:25;;;;;;;16.23;11.23;;;;;20.00;97037.00;;;;5048596;28;20209;-86
2023/08/18 01:54:14;;;;;;;13.87;12.10;;;;;20.00;97026.00;;;;5047375;28;20491;-85
2023/08/18 01:57:05;;;;;;;12.63;11.33;;;;;20.20;97022.00;;;;5048257;28;20232;-86
2023/08/18 01:59:54;;;;;;;13.30;11.07;;;;;20.20;97018.00;;;;5047352;28;20209;-87
2023/08/18 02:02:43;;;;;;;16.30;11.17;;;;;20.40;97028.00;;;;5042246;28;20215;-87
2023/08/18 02:05:32;;;;;;;14.27;12.80;;;;;20.50;97021.00;;;;5041221;28;20568;-86
2023/08/18 02:08:22;;;;;;;12.97;11.60;;;;;20.50;97022.00;;;;5041723;28;20209;-86
2023/08/18 02:11:11;;;;;;;15.03;10.97;;;;;20.10;97026.00;;;;5044078;28;20200;-87
2023/08/18 02:14:01;;;;;;;13.17;10.07;;;;;20.10;97025.00;;;;5046707;28;20213;-86
2023/08/18 02:16:50;;;;;;;12.77;9.73;;;;;20.20;97024.00;;;;5047036;28;20224;-86
2023/08/18 02:19:39;;;;;;;13.03;11.10;;;;;20.00;97017.00;;;;5041602;28;20208;-86
2023/08/18 02:22:29;;;;;;;11.17;9.73;;;;;19.80;97016.00;;;;5046000;28;20216;-86
2023/08/18 02:25:18;;;;;;;10.40;9.40;;;;;19.60;97018.00;;;;5047617;28;20569;-87
2023/08/18 02:28:07;;;;;;;11.37;9.67;;;;;19.70;97014.00;;;;5042537;28;20558;-86
2023/08/18 02:31:05;;;;;;;10.73;9.63;;;;;19.60;97017.00;;;;5041421;28;20217;-87
2023/08/18 02:33:54;;;;;;;12.47;10.47;;;;;19.70;97011.00;;;;5043308;28;20483;-86
2023/08/18 02:36:43;;;;;;;11.07;10.03;;;;;19.80;97016.00;;;;5042894;28;20232;-87
2023/08/18 02:39:33;;;;;;;13.67;11.57;;;;;19.80;97013.00;;;;5047028;28;20497;-87
2023/08/18 02:42:22;;;;;;;15.10;9.97;;;;;19.90;97015.00;;;;5047142;28;20200;-87
2023/08/18 02:45:12;;;;;;;10.67;9.57;;;;;19.80;97008.00;;;;5050235;28;20193;-87
2023/08/18 02:48:02;;;;;;;10.97;9.53;;;;;19.60;97011.00;;;;5046256;28;20201;-87
2023/08/18 02:50:51;;;;;;;10.93;9.60;;;;;19.20;97009.00;;;;5045071;28;20207;-87
2023/08/18 02:53:41;;;;;;;12.20;10.97;;;;;19.40;97016.00;;;;5048076;28;20568;-86
2023/08/18 02:56:31;;;;;;;12.63;11.10;;;;;19.80;97012.00;;;;5043909;28;20232;-87
2023/08/18 02:59:20;;;;;;;11.17;10.07;;;;;19.60;97014.00;;;;5044003;28;20689;-86
2023/08/18 03:02:09;;;;;;;15.63;10.87;;;;;19.50;97009.00;;;;5043669;28;20585;-87
2023/08/18 03:05:00;;;;;;;12.93;11.57;;;;;19.80;97015.00;;;;5044057;28;20456;-87
2023/08/18 03:07:49;;;;;;;14.37;10.83;;;;;19.90;97021.00;;;;5043843;28;20242;-86
2023/08/18 03:10:38;;;;;;;14.40;11.63;;;;;19.80;97005.00;;;;5043014;28;20678;-87
2023/08/18 03:13:28;;;;;;;13.80;11.40;;;;;19.50;97004.00;;;;5043755;28;20204;-87
2023/08/18 03:16:18;;;;;;;13.90;11.27;;;;;19.80;97002.00;;;;5043737;28;20228;-87
2023/08/18 03:19:07;;;;;;;13.27;10.97;;;;;19.80;97005.00;;;;5042492;28;20510;-87
2023/08/18 03:21:58;;;;;;;14.23;12.77;;;;;19.60;97005.00;;;;5041448;28;20209;-86
2023/08/18 03:24:47;;;;;;;13.47;11.53;;;;;19.90;97003.00;;;;5041407;28;20231;-86
2023/08/18 03:27:36;;;;;;;15.27;12.00;;;;;20.00;96996.00;;;;5040714;28;20225;-86
2023/08/18 03:30:25;;;;;;;13.07;11.53;;;;;20.20;96990.00;;;;5043571;28;20201;-87
2023/08/18 03:33:14;;;;;;;12.37;10.33;;;;;19.60;97004.00;;;;5042319;28;20243;-86
2023/08/18 03:36:04;;;;;;;13.27;10.67;;;;;19.60;97003.00;;;;5041353;28;20235;-86
2023/08/18 03:38:54;;;;;;;12.03;10.77;;;;;19.70;96997.00;;;;5045956;28;20205;-87
2023/08/18 03:41:43;;;;;;;16.53;11.30;;;;;19.50;96997.00;;;;5045787;28;20583;-86
2023/08/18 03:44:32;;;;;;;13.10;10.67;;;;;19.60;96992.00;;;;5042324;28;20626;-87
2023/08/18 03:47:21;;;;;;;11.90;10.73;;;;;19.30;96978.00;;;;5042101;28;20251;-86
2023/08/18 03:50:10;;;;;;;15.90;11.10;;;;;19.40;96985.00;;;;5043494;28;20213;-87
2023/08/18 03:53:00;;;;;;;12.70;10.90;;;;;19.60;96993.00;;;;5043108;28;20204;-86
2023/08/18 03:55:55;;;;;;;11.33;10.20;;;;;19.60;96996.00;;;;5045243;28;20232;-86
2023/08/18 03:58:45;;;;;;;12.07;10.60;;;;;19.30;96989.00;;;;5041479;28;20200;-85
2023/08/18 04:01:34;;;;;;;14.37;11.50;;;;;19.30;96988.00;;;;5038634;28;20196;-86
2023/08/18 04:04:23;;;;;;;14.70;10.73;;;;;19.50;97003.00;;;;5045619;28;20192;-86
2023/08/18 04:07:12;;;;;;;13.10;11.87;;;;;19.50;97004.00;;;;5046795;28;20227;-86
2023/08/18 04:10:01;;;;;;;11.00;9.90;;;;;19.40;97010.00;;;;5052209;28;20200;-87
2023/08/18 04:12:51;;;;;;;12.60;11.30;;;;;19.60;97007.00;;;;5040679;28;20201;-86
2023/08/18 04:15:41;;;;;;;12.17;10.97;;;;;19.80;97018.00;;;;5047588;28;20227;-86
2023/08/18 04:18:30;;;;;;;12.37;10.60;;;;;19.80;97016.00;;;;5041687;28;20222;-87
2023/08/18 04:21:19;;;;;;;12.37;11.17;;;;;19.80;97015.00;;;;5042650;28;20216;-87
2023/08/18 04:24:09;;;;;;;13.80;12.30;;;;;19.90;97020.00;;;;5051897;28;20488;-87
2023/08/18 04:27:00;;;;;;;12.50;11.20;;;;;19.60;97017.00;;;;5055172;28;20216;-86
2023/08/18 04:29:50;;;;;;;13.40;11.77;;;;;19.50;97013.00;;;;5050494;28;20209;-86
2023/08/18 04:32:39;;;;;;;11.50;10.33;;;;;19.30;97014.00;;;;5047668;28;20207;-87
2023/08/18 04:35:28;;;;;;;11.07;9.97;;;;;19.00;97013.00;;;;5046321;28;20229;-87
2023/08/18 04:38:17;;;;;;;11.97;10.67;;;;;19.40;97018.00;;;;5047978;28;20199;-87
2023/08/18 04:41:09;;;;;;;12.50;9.67;;;;;19.30;97021.00;;;;5071693;28;20196;-87
2023/08/18 04:43:58;;;;;;;14.73;11.20;;;;;19.60;97016.00;;;;5071329;28;20215;-86
2023/08/18 04:46:48;;;;;;;13.33;11.70;;;;;19.50;97019.00;;;;5070206;28;20201;-86
2023/08/18 04:49:37;;;;;;;13.70;11.53;;;;;19.60;97021.00;;;;5051342;28;20702;-87
2023/08/18 04:52:26;;;;;;;13.20;11.80;;;;;19.70;97035.00;;;;5053539;22;20235;-65
2023/08/18 04:55:15;;;;;;;14.37;12.90;;;;;20.10;97038.00;;;;5005006;28;20205;-65
2023/08/18 04:58:04;;;;;;;12.70;11.40;;;;;20.20;97031.00;;;;4993589;28;20223;-65
2023/08/18 05:00:53;;;;;;;13.83;10.97;;;;;20.20;97035.00;;;;4985922;28;20199;-65
2023/08/18 05:03:44;;;;;;;17.03;11.93;;;;;20.10;97041.00;;;;4988373;28;20216;-65
2023/08/18 05:06:33;;;;;;;14.83;11.70;;;;;20.00;97039.00;;;;4997516;28;20693;-65
2023/08/18 05:09:23;;;;;;;17.77;13.97;;;;;19.70;97038.00;;;;5003257;28;20202;-65
2023/08/18 05:12:12;;;;;;;15.93;13.47;;;;;19.80;97038.00;;;;5003014;28;20210;-65
2023/08/18 05:15:01;;;;;;;15.43;12.37;;;;;20.00;97036.00;;;;4987218;28;20219;-66
2023/08/18 05:17:50;;;;;;;13.40;11.90;;;;;20.00;97042.00;;;;4988574;28;20234;-65
2023/08/18 05:20:41;;;;;;;11.90;10.70;;;;;19.70;97033.00;;;;4996767;28;20673;-66
2023/08/18 05:23:30;;;;;;;12.60;11.40;;;;;19.70;97025.00;;;;4996634;28;20760;-65
2023/08/18 05:26:19;;;;;;;15.57;11.53;;;;;20.00;97029.00;;;;4984182;28;20210;-66
2023/08/18 05:29:08;;;;;;;13.73;10.93;;;;;20.10;97031.00;;;;4988407;28;20200;-65
2023/08/18 05:31:57;;;;;;;13.67;11.30;;;;;20.20;97016.00;;;;4985839;28;20214;-65
2023/08/18 05:34:46;;;;;;;12.53;11.33;;;;;20.70;97018.00;;;;4988474;28;20216;-65
2023/08/18 05:37:37;;;;;;;14.33;11.23;;;;;20.60;97014.00;;;;4985998;28;20609;-65
2023/08/18 05:40:26;;;;;;;13.30;11.40;;;;;20.50;97017.00;;;;4980299;28;20214;-66
2023/08/18 05:43:16;;;;;;;13.77;10.57;;;;;20.60;97019.00;;;;4987290;28;20199;-65
2023/08/18 05:46:05;;;;;;;11.47;10.17;;;;;20.60;97016.00;;;;4990540;28;20195;-65
2023/08/18 05:48:54;;;;;;;12.87;11.43;;;;;20.60;97016.00;;;;4986032;28;20214;-65
2023/08/18 05:51:44;;;;;;;13.83;10.53;;;;;20.60;97023.00;;;;4991793;28;20206;-65
2023/08/18 05:54:34;;;;;;;10.67;9.60;;;;;20.80;97024.00;;;;4989712;28;20210;-65
2023/08/18 05:57:23;;;;;;;12.63;10.77;;;;;21.20;97023.00;;;;4988929;28;20230;-65
2023/08/18 06:00:14;;;;;;;11.77;10.57;;;;;21.30;97026.00;;;;4988240;28;20210;-65
2023/08/18 06:03:03;;;;;;;13.83;12.07;;;;;21.10;97022.00;;;;4987964;28;20214;-65
2023/08/18 06:05:52;;;;;;;12.47;11.20;;;;;21.50;97021.00;;;;4990154;28;20218;-65
2023/08/18 06:08:41;;;;;;;13.23;11.93;;;;;21.50;97031.00;;;;4996854;28;20233;-65
2023/08/18 06:11:32;;;;;;;13.37;11.30;;;;;21.70;97025.00;;;;4995686;28;20682;-65
2023/08/18 06:14:21;;;;;;;13.97;11.47;;;;;21.70;97028.00;;;;4993708;28;20206;-66
2023/08/18 06:17:10;;;;;;;12.37;11.03;;;;;21.90;97028.00;;;;4995575;28;20256;-65
2023/08/18 06:19:59;;;;;;;15.63;12.17;;;;;22.40;97026.00;;;;5002599;28;20580;-66
2023/08/18 06:22:48;;;;;;;15.23;12.50;;;;;22.70;97029.00;;;;4995958;28;20217;-65
2023/08/18 06:25:37;;;;;;;16.93;11.13;;;;;23.00;97031.00;;;;4996200;28;20233;-65
2023/08/18 06:28:30;;;;;;;15.83;12.63;;;;;23.40;97030.00;;;;5003344;28;20288;-66
2023/08/18 06:31:18;;;;;;;15.83;12.07;;;;;23.60;97029.00;;;;5001612;28;20821;-66
2023/08/18 06:34:08;;;;;;;16.07;13.00;;;;;23.90;97028.00;;;;5000727;28;20225;-66
2023/08/18 06:36:56;;;;;;;13.93;10.73;;;;;24.10;97028.00;;;;5000709;28;20244;-66
2023/08/18 06:39:46;;;;;;;21.83;15.07;;;;;24.20;97033.00;;;;4996246;28;20767;-66
2023/08/18 06:42:36;;;;;;;15.23;10.53;;;;;24.30;97029.00;;;;4989520;28;20253;-66
2023/08/18 06:45:26;;;;;;;12.43;10.37;;;;;24.40;97023.00;;;;4998464;28;20199;-66
2023/08/18 06:48:15;;;;;;;18.53;10.93;;;;;24.50;97036.00;;;;4997504;28;20225;-65
2023/08/18 06:51:04;;;;;;;12.00;10.50;;;;;24.70;97037.00;;;;4991711;28;20202;-66
2023/08/18 06:53:53;;;;;;;11.60;10.40;;;;;24.80;97038.00;;;;4989068;28;20635;-65
2023/08/18 06:56:43;;;;;;;13.17;10.93;;;;;25.00;97031.00;;;;4994852;28;20624;-65
2023/08/18 06:59:32;;;;;;;14.20;10.77;;;;;25.00;97041.00;;;;4993315;28;20210;-66
2023/08/18 07:02:23;;;;;;;11.63;10.43;;;;;25.30;97036.00;;;;4995657;28;20204;-66
2023/08/18 07:05:12;;;;;;;13.47;11.20;;;;;25.30;97046.00;;;;5002381;28;20199;-66
2023/08/18 07:08:02;;;;;;;14.77;11.57;;;;;25.60;97046.00;;;;4988241;28;20610;-65
2023/08/18 07:10:51;;;;;;;11.83;10.63;;;;;25.70;97043.00;;;;4996950;28;20197;-65
2023/08/18 07:13:40;;;;;;;12.67;11.37;;;;;25.10;97043.00;;;;4994334;28;20217;-66
2023/08/18 07:16:29;;;;;;;13.20;10.50;;;;;24.80;97034.00;;;;4999943;28;20221;-65
2023/08/18 07:19:19;;;;;;;18.67;10.83;;;;;25.00;97041.00;;;;4986622;28;20213;-65
2023/08/18 07:22:08;;;;;;;13.47;10.70;;;;;25.10;97037.00;;;;4988272;28;20210;-66
2023/08/18 07:24:57;;;;;;;14.23;11.40;;;;;25.70;97037.00;;;;4986231;28;20736;-66
2023/08/18 07:27:46;;;;;;;15.23;12.10;;;;;26.00;97037.00;;;;4991253;28;20230;-66
2023/08/18 07:30:35;;;;;;;14.70;12.17;;;;;26.50;97036.00;;;;4979267;28;20206;-66
2023/08/18 07:33:25;;;;;;;17.67;11.50;;;;;26.80;97037.00;;;;4979638;28;20256;-66
2023/08/18 07:36:15;;;;;;;12.43;11.13;;;;;27.00;97042.00;;;;4978917;28;20205;-66
2023/08/18 07:39:05;;;;;;;12.77;11.03;;;;;27.10;97036.00;;;;4978376;28;20237;-66
2023/08/18 07:41:55;;;;;;;14.77;11.60;;;;;27.00;97036.00;;;;4979699;28;20207;-66
2023/08/18 07:44:44;;;;;;;18.63;11.50;;;;;27.00;97032.00;;;;4981599;28;20264;-65
2023/08/18 07:47:33;;;;;;;12.00;10.10;;;;;27.50;97037.00;;;;4979683;28;20226;-65
2023/08/18 07:50:22;;;;;;;12.17;10.27;;;;;27.60;97039.00;;;;4980294;28;20214;-66
2023/08/18 07:53:13;;;;;;;12.50;10.43;;;;;27.80;97040.00;;;;4975978;28;20247;-65
2023/08/18 07:56:03;;;;;;;13.53;11.27;;;;;27.70;97043.00;;;;4975880;28;20204;-66
2023/08/18 07:58:52;;;;;;;13.03;10.83;;;;;27.70;97034.00;;;;4977526;28;20237;-65
2023/08/18 08:01:43;;;;;;;10.97;9.90;;;;;28.20;97037.00;;;;4976686;28;20215;-66
2023/08/18 08:04:32;;;;;;;14.70;10.67;;;;;28.20;97041.00;;;;4979182;28;20209;-66
2023/08/18 08:07:21;;;;;;;13.87;10.63;;;;;28.30;97031.00;;;;4979394;28;20230;-65
2023/08/18 08:10:12;;;;;;;11.40;10.17;;;;;28.40;97050.00;;;;4980477;28;20222;-65
2023/08/18 08:13:04;;;;;;;11.50;9.70;;;;;28.40;97037.00;;;;4980863;28;20222;-66
2023/08/18 08:15:53;;;;;;;10.53;9.43;;;;;28.60;97034.00;;;;4981231;28;20224;-65
2023/08/18 08:18:43;;;;;;;13.07;10.40;;;;;28.50;97040.00;;;;4978536;28;20242;-66
2023/08/18 08:21:32;;;;;;;14.67;10.47;;;;;28.60;97032.00;;;;4979933;28;20212;-66
2023/08/18 08:24:24;;;;;;;13.10;9.50;;;;;28.70;97035.00;;;;4977653;28;20199;-65
2023/08/18 08:27:15;;;;;;;11.43;10.17;;;;;28.50;97038.00;;;;4977273;28;20232;-66
2023/08/18 08:30:05;;;;;;;9.90;8.90;;;;;28.40;97042.00;;;;4978219;28;20221;-66
2023/08/18 08:32:54;;;;;;;11.13;9.47;;;;;28.60;97024.00;;;;4984056;28;20215;-67
2023/08/18 08:35:43;;;;;;;13.43;9.80;;;;;28.90;97032.00;;;;4980187;28;20286;-66
2023/08/18 08:38:32;;;;;;;13.33;9.93;;;;;29.10;97033.00;;;;5026273;22;20611;-71
2023/08/18 08:41:21;;;;;;;11.07;9.87;;;;;29.30;97035.00;;;;5021931;28;20576;-72
2023/08/18 08:44:12;;;;;;;13.90;9.97;;;;;29.30;97042.00;;;;5021106;28;20211;-72
2023/08/18 08:47:02;;;;;;;10.60;9.00;;;;;29.80;97028.00;;;;5018611;28;20222;-71
2023/08/18 08:49:54;;;;;;;12.50;9.67;;;;;30.00;97028.00;;;;5022106;28;20213;-73
2023/08/18 08:52:43;;;;;;;19.53;11.90;;;26.70;99.90;29.90;97031.00;;;;5030641;28;20234;-73
2023/08/18 08:55:34;;;;;;;12.23;9.57;;;26.70;99.90;30.30;97032.00;;;;5022590;28;20209;-71
2023/08/18 08:58:23;;;;;;;13.03;9.97;;;26.90;99.90;29.60;97032.00;;;;5030195;28;20232;-70
2023/08/18 09:01:13;;;;;;;12.87;9.00;;;27.00;99.90;29.30;97032.00;;;;5028446;28;20254;-70
2023/08/18 09:04:05;;;;;;;12.17;8.83;;;26.90;99.90;29.80;97027.00;;;;5029573;28;20692;-71
2023/08/18 09:06:57;;;;;;;9.57;8.57;;;26.90;99.90;30.20;97029.00;;;;5030785;28;20230;-70
2023/08/18 09:09:46;;;;;;;9.53;8.53;;;27.00;99.90;29.90;97027.00;;;;5033373;28;20211;-70
2023/08/18 09:12:35;;;;;;;8.70;7.90;;;27.10;99.90;30.40;97029.00;;;;5026655;28;20276;-70
2023/08/18 09:15:24;;;;;;;9.60;8.50;;;27.20;99.90;30.00;97022.00;;;;5027368;28;20322;-70
2023/08/18 09:18:15;;;;;;;10.60;8.63;;;27.30;99.90;29.70;97030.00;;;;5026858;28;20735;-70
2023/08/18 09:21:06;;;;;;;12.57;8.53;;;27.40;99.90;29.70;97025.00;;;;5034578;28;20251;-70
2023/08/18 09:23:56;;;;;;;11.77;9.13;;;27.40;99.90;30.50;97023.00;;;;5029605;28;20210;-71
2023/08/18 09:26:44;;;;;;;8.97;8.07;;;27.50;99.90;30.90;97017.00;;;;5028955;28;20207;-70
2023/08/18 09:29:34;;;;;;;9.17;7.93;;;27.70;99.90;30.60;97019.00;;;;5028406;28;20738;-70
2023/08/18 09:32:25;;;;;;;9.03;8.13;;;27.90;99.90;31.50;97017.00;;;;5029602;28;20691;-71
2023/08/18 09:35:19;;;;;;;11.53;8.60;;;28.10;99.90;31.70;97022.00;;;;5027113;28;20220;-71
2023/08/18 09:38:13;;;;;;;10.23;9.23;;;28.30;99.90;31.40;97021.00;;;;5027803;28;20856;-71
2023/08/18 09:41:03;;;;;;;8.73;7.83;;;28.50;99.90;31.30;97014.00;;;;5027288;28;20208;-70
2023/08/18 09:43:53;;;;;;;12.70;9.40;;;28.60;99.90;31.80;97010.00;;;;5028613;28;20716;-70
2023/08/18 09:46:43;;;;;;;9.10;7.83;;;28.60;99.90;32.70;97012.00;;;;5035610;28;20197;-71
2023/08/18 09:49:35;;;;;;;9.40;8.40;;;28.90;99.90;32.30;97007.00;;;;5027716;28;20206;-70
2023/08/18 09:52:29;;;;;;;11.20;8.68;;;29.10;99.90;31.40;97000.00;;;;5026858;28;20202;-70
2023/08/18 09:55:25;;;;;;;9.10;8.18;;;29.10;99.90;32.10;97000.00;;;;5033202;28;20207;-71
2023/08/18 09:58:27;;;;;;;9.48;8.13;;;29.10;99.90;32.10;96984.00;;;;5022173;28;20224;-71
2023/08/18 10:01:18;;;;;;;8.00;7.30;;;29.30;99.90;32.60;96983.00;;;;5027700;28;20903;-72
2023/08/18 10:04:08;;;;;;;8.60;7.78;;;29.40;99.90;33.10;96984.00;;;;5028029;28;20199;-71
2023/08/18 10:06:57;;;;;;;7.97;6.85;;;29.60;99.90;33.50;96982.00;;;;5033882;28;20221;-71
2023/08/18 10:09:48;;;;;;;8.50;7.70;;;29.80;99.90;33.70;96975.00;;;;5036527;28;20242;-71
2023/08/18 10:12:37;;;;;;;6.40;5.40;;;30.20;99.90;33.10;96973.00;;;;5043834;28;20194;-72
2023/08/18 10:15:26;;;;;;;7.88;7.05;;;30.20;98.60;33.60;96969.00;;;;5026811;28;20568;-71
2023/08/18 10:18:16;;;;;;;7.13;6.50;;;30.30;99.90;34.00;96980.00;;;;5027195;28;20251;-71
2023/08/18 10:21:05;;;;;;;7.38;6.75;;;30.50;99.90;32.50;96982.00;;;;5030654;28;20210;-72
2023/08/18 10:23:54;;;;;;;9.57;7.65;;;30.30;98.30;32.40;96977.00;;;;5031531;28;20197;-69
2023/08/18 10:26:44;;;;;;;8.27;7.00;;;30.30;99.00;32.60;96968.00;;;;5039953;28;20217;-72
2023/08/18 10:29:35;;;;;;;8.18;6.55;;;30.10;98.60;33.60;96973.00;;;;5038215;28;20214;-72
2023/08/18 10:32:24;;;;;;;7.95;6.72;;;30.30;99.80;32.30;96972.00;;;;5030455;28;20212;-70
2023/08/18 10:35:21;;;;;;;7.10;6.40;;;30.30;96.90;33.80;96972.00;;;;5019310;28;20894;-70
2023/08/18 10:38:12;;;;;;;9.82;8.63;;;30.40;97.70;34.40;96967.00;;;;5023009;28;20316;-72
2023/08/18 10:41:00;;;;;;;8.02;6.30;;;30.70;98.30;34.60;96959.00;;;;5027405;28;20214;-71
2023/08/18 10:43:56;;;;;;;7.60;6.88;;;31.00;97.90;35.30;96964.00;;;;5035291;28;20214;-71
2023/08/18 10:46:44;;;;;;;7.28;6.63;;;31.30;97.80;33.80;96953.00;;;;5030582;28;20577;-70
2023/08/18 10:49:33;;;;;;;7.85;6.93;;;31.50;94.90;35.10;96954.00;;;;5043439;28;20202;-72
2023/08/18 10:52:23;;;;;;;9.93;7.00;;;31.60;95.30;35.50;96959.00;;;;5025925;28;20196;-71
2023/08/18 10:55:12;;;;;;;7.43;6.82;;;31.70;95.30;35.60;96952.00;;;;5025510;28;20575;-71
2023/08/18 10:58:00;;;;;;;6.78;6.13;;;31.90;94.50;35.90;96952.00;;;;5018215;28;20232;-69
2023/08/18 11:00:51;;;;;;;7.45;6.70;;;32.10;93.80;35.40;96949.00;;;;5018265;28;20204;-72
2023/08/18 11:03:40;;;;;;;7.07;6.35;;;32.20;92.70;35.10;96947.00;;;;5020210;28;20208;-72
2023/08/18 11:06:29;;;;;;;7.65;6.93;;;32.20;93.40;35.40;96950.00;;;;5019292;28;20202;-72
2023/08/18 11:09:18;;;;;;;6.22;5.63;;;32.20;92.60;35.80;96949.00;;;;5018752;28;20207;-72
2023/08/18 11:12:08;;;;;;;6.75;6.15;;;32.30;92.90;35.40;96944.00;;;;5019607;28;20213;-71
2023/08/18 11:14:56;;;;;;;6.18;5.57;;;32.40;92.10;35.70;96938.00;;;;5019799;28;20210;-72
2023/08/18 11:17:47;;;;;;;7.43;6.72;;;32.50;92.20;34.70;96939.00;;;;5021026;28;20229;-71
2023/08/18 11:20:37;;;;;;;7.70;6.90;;;32.30;90.50;36.50;96934.00;;;;5019262;28;20225;-71
2023/08/18 11:23:27;;;;;;;7.97;5.47;;;32.50;91.80;36.50;96941.00;;;;5019221;28;20205;-71
2023/08/18 11:26:17;;;;;;;7.20;6.50;;;32.80;90.80;36.60;96937.00;;;;5018969;28;20680;-71
2023/08/18 11:29:06;;;;;;;6.97;6.38;;;33.00;90.30;37.30;96937.00;;;;5020218;28;20573;-71
2023/08/18 11:31:55;;;;;;;6.78;6.25;;;33.30;91.10;37.00;96941.00;;;;5021714;28;20204;-71
2023/08/18 11:34:46;;;;;;;6.50;5.35;;;33.60;91.00;36.50;96939.00;;;;5029552;28;20669;-72
2023/08/18 11:37:40;;;;;;;6.30;5.75;;;33.80;88.20;37.10;96936.00;;;;5030450;28;20252;-71
2023/08/18 11:40:29;;;;;;;6.60;6.10;;;33.70;90.10;37.80;96937.00;;;;5036098;28;20235;-71
2023/08/18 11:43:21;;;;;;;6.80;6.10;;;33.90;90.50;37.20;96937.00;;;;5027070;28;20350;-71
2023/08/18 11:46:10;;;;;;;7.10;5.97;;;34.10;88.80;36.70;96946.00;;;;5033514;28;20208;-71
2023/08/18 11:49:00;;;;;;;7.95;5.75;;;34.20;89.20;36.60;96943.00;;;;5036255;28;20207;-71
2023/08/18 11:51:57;;;;;;;9.38;5.75;;;33.80;90.00;37.40;96931.00;;;;5021303;28;20205;-71
2023/08/18 11:54:46;;;;;;;7.20;6.05;;;33.90;89.30;36.50;96937.00;;;;5024351;28;20715;-72
2023/08/18 11:57:40;;;;;;;9.25;7.13;;;33.90;90.20;37.00;96940.00;;;;5030434;28;20225;-71
2023/08/18 12:00:34;;;;;;;6.63;6.07;;;33.90;88.30;37.90;96940.00;;;;5036012;28;20225;-72
2023/08/18 12:03:26;;;;;;;8.30;6.40;;;34.00;89.00;34.60;96982.00;;;;5027947;28;20199;-71
2023/08/18 12:06:24;;;;;;;5.80;5.30;;;33.70;87.00;33.00;96935.00;;;;5028584;28;20212;-70
2023/08/18 12:09:14;;;;;;;9.77;6.57;;;32.70;88.70;35.10;96941.00;;;;5027620;28;20209;-71
2023/08/18 12:12:14;;;;;;;5.50;4.78;;;32.40;90.70;36.10;96940.00;;;;5025815;28;20221;-71
2023/08/18 12:15:03;;;;;;;5.38;4.88;;;32.60;90.70;36.70;96941.00;;;;5027994;28;20208;-70
2023/08/18 12:17:51;;;;;;;5.25;4.80;;;32.90;89.80;36.70;96945.00;;;;5033075;28;20229;-71
2023/08/18 12:20:41;;;;;;;5.53;4.90;;;33.20;90.00;37.50;96930.00;;;;5027616;28;20603;-71
2023/08/18 12:23:31;;;;;;;5.97;5.38;;;33.60;89.60;36.20;96929.00;;;;5028102;28;20212;-71
2023/08/18 12:26:22;;;;;;;5.55;5.15;;;33.80;87.50;35.80;96926.00;;;;5029150;28;20206;-71
2023/08/18 12:29:11;;;;;;;6.65;5.90;;;33.50;87.40;37.60;96935.00;;;;5036292;28;20209;-71
2023/08/18 12:32:00;;;;;;;5.65;5.15;;;33.70;88.60;37.60;96921.00;;;;5038674;28;20205;-71
2023/08/18 12:34:50;;;;;;;6.20;5.70;;;34.00;89.00;37.90;96923.00;;;;5040922;28;20583;-71
2023/08/18 12:37:39;;;;;;;5.75;5.25;;;34.30;87.90;36.60;96936.00;;;;5032735;28;20241;-71
2023/08/18 12:40:28;;;;;;;5.88;5.32;;;34.30;86.80;37.80;96957.00;;;;5025028;28;20279;-71
2023/08/18 12:43:18;;;;;;;5.78;5.28;;;34.30;87.10;36.40;96965.00;;;;5029292;28;20587;-71
2023/08/18 12:46:07;;;;;;;5.47;5.00;;;34.10;85.10;37.40;96959.00;;;;5039581;28;20208;-71
2023/08/18 12:48:56;;;;;;;5.90;5.38;;;34.00;87.10;37.10;96962.00;;;;5035549;28;20236;-71
2023/08/18 12:51:44;;;;;;;4.72;4.32;;;34.00;87.70;36.00;96950.00;;;;5033777;28;20208;-71
2023/08/18 12:54:33;;;;;;;5.03;4.63;;;33.90;86.30;35.70;96949.00;;;;5030310;28;20207;-71
2023/08/18 12:57:22;;;;;;;4.68;4.13;;;33.40;86.00;35.80;96959.00;;;;5036535;28;20222;-70
2023/08/18 13:00:14;;;;;;;4.90;4.50;;;33.20;84.30;35.80;96958.00;;;;5043643;28;20228;-71
2023/08/18 13:03:03;;;;;;;4.18;3.88;;;33.00;85.50;35.90;96972.00;;;;5032233;28;20201;-70
2023/08/18 13:05:52;;;;;;;5.05;4.65;;;32.80;86.20;35.70;96967.00;;;;5035341;28;20208;-70
2023/08/18 13:08:40;;;;;;;5.25;4.85;;;32.80;87.10;33.10;97000.00;;;;5034568;28;20221;-70
2023/08/18 13:11:32;;;;;;;5.32;4.82;;;32.10;86.60;33.60;96999.00;;;;5047045;28;20217;-70
2023/08/18 13:14:22;;;;;;;5.97;5.18;;;31.60;88.00;32.70;97000.00;;;;5033913;28;20582;-70
2023/08/18 13:17:14;;;;;;;5.05;4.63;;;31.10;89.10;32.50;97000.00;;;;5032992;28;20619;-70
2023/08/18 13:20:03;;;;;;;5.22;4.72;;;30.50;90.40;32.00;97005.00;;;;5038986;28;20236;-70
2023/08/18 13:22:52;;;;;;;6.28;4.78;;;30.10;91.10;31.20;97000.00;;;;5044258;28;20562;-70